sensor_id;sensor_type;location;lat;lon;timestamp;pressure;altitude;pressure_sealevel;temperature;humidity
71996;BME280;59862;47.732;7.346;2023-03-01T00:01:22;98691.91;;;-2.42;75.00
71996;BME280;59862;47.732;7.346;2023-03-01T00:03:46;98691.55;;;-2.43;75.17
71996;BME280;59862;47.732;7.346;2023-03-01T00:06:14;98688.06;;;-2.44;75.09
71996;BME280;59862;47.732;7.346;2023-03-01T00:08:42;98686.10;;;-2.40;74.98
71996;BME280;59862;47.732;7.346;2023-03-01T00:11:21;98681.80;;;-2.41;75.00
71996;BME280;59862;47.732;7.346;2023-03-01T00:13:51;98686.10;;;-2.40;75.11
71996;BME280;59862;47.732;7.346;2023-03-01T00:16:22;98685.14;;;-2.46;74.98
71996;BME280;59862;47.732;7.346;2023-03-01T00:18:50;98682.05;;;-2.46;75.20
71996;BME280;59862;47.732;7.346;2023-03-01T00:21:19;98677.86;;;-2.41;75.14
71996;BME280;59862;47.732;7.346;2023-03-01T00:23:49;98685.84;;;-2.43;75.17
71996;BME280;59862;47.732;7.346;2023-03-01T00:26:18;98684.78;;;-2.40;75.10
71996;BME280;59862;47.732;7.346;2023-03-01T00:28:47;98682.52;;;-2.46;75.05
71996;BME280;59862;47.732;7.346;2023-03-01T00:31:22;98683.63;;;-2.50;75.10
71996;BME280;59862;47.732;7.346;2023-03-01T00:33:52;98683.97;;;-2.56;75.20
71996;BME280;59862;47.732;7.346;2023-03-01T00:36:22;98686.41;;;-2.53;75.38
71996;BME280;59862;47.732;7.346;2023-03-01T00:38:50;98685.91;;;-2.60;75.10
71996;BME280;59862;47.732;7.346;2023-03-01T00:41:19;98693.52;;;-2.62;75.36
71996;BME280;59862;47.732;7.346;2023-03-01T00:43:47;98690.64;;;-2.58;75.40
71996;BME280;59862;47.732;7.346;2023-03-01T00:46:17;98694.02;;;-2.56;75.49
71996;BME280;59862;47.732;7.346;2023-03-01T00:48:45;98686.76;;;-2.59;75.44
71996;BME280;59862;47.732;7.346;2023-03-01T00:51:15;98681.34;;;-2.56;75.45
71996;BME280;59862;47.732;7.346;2023-03-01T00:53:44;98674.02;;;-2.58;75.25
71996;BME280;59862;47.732;7.346;2023-03-01T00:56:14;98674.94;;;-2.59;75.28
71996;BME280;59862;47.732;7.346;2023-03-01T00:58:42;98674.44;;;-2.66;75.38
71996;BME280;59862;47.732;7.346;2023-03-01T01:01:16;98672.66;;;-2.65;75.71
71996;BME280;59862;47.732;7.346;2023-03-01T01:03:51;98671.65;;;-2.63;75.50
71996;BME280;59862;47.732;7.346;2023-03-01T01:06:22;98670.03;;;-2.65;75.60
71996;BME280;59862;47.732;7.346;2023-03-01T01:08:50;98673.77;;;-2.69;75.58
71996;BME280;59862;47.732;7.346;2023-03-01T01:11:19;98667.66;;;-2.70;75.58
71996;BME280;59862;47.732;7.346;2023-03-01T01:13:48;98664.83;;;-2.74;75.70
71996;BME280;59862;47.732;7.346;2023-03-01T01:16:17;98658.72;;;-2.74;75.77
71996;BME280;59862;47.732;7.346;2023-03-01T01:18:46;98653.11;;;-2.75;75.79
71996;BME280;59862;47.732;7.346;2023-03-01T01:21:16;98655.34;;;-2.76;75.55
71996;BME280;59862;47.732;7.346;2023-03-01T01:23:45;98655.12;;;-2.80;75.67
71996;BME280;59862;47.732;7.346;2023-03-01T01:26:20;98651.49;;;-2.78;75.59
71996;BME280;59862;47.732;7.346;2023-03-01T01:28:43;98640.89;;;-2.76;75.54
71996;BME280;59862;47.732;7.346;2023-03-01T01:31:11;98634.79;;;-2.77;75.54
71996;BME280;59862;47.732;7.346;2023-03-01T01:33:39;98630.03;;;-2.77;75.73
71996;BME280;59862;47.732;7.346;2023-03-01T01:36:08;98627.56;;;-2.80;75.74
71996;BME280;59862;47.732;7.346;2023-03-01T01:38:36;98635.28;;;-2.77;75.75
71996;BME280;59862;47.732;7.346;2023-03-01T01:41:05;98625.39;;;-2.81;75.49
71996;BME280;59862;47.732;7.346;2023-03-01T01:43:39;98626.09;;;-2.77;75.58
71996;BME280;59862;47.732;7.346;2023-03-01T01:48:46;98625.74;;;-2.87;75.93
71996;BME280;59862;47.732;7.346;2023-03-01T01:51:20;98627.61;;;-2.89;75.83
71996;BME280;59862;47.732;7.346;2023-03-01T01:53:51;98626.30;;;-2.89;75.91
71996;BME280;59862;47.732;7.346;2023-03-01T01:56:19;98623.53;;;-2.94;75.87
71996;BME280;59862;47.732;7.346;2023-03-01T01:58:48;98614.89;;;-2.96;76.17
71996;BME280;59862;47.732;7.346;2023-03-01T02:01:16;98612.36;;;-2.98;75.99
71996;BME280;59862;47.732;7.346;2023-03-01T02:03:45;98608.73;;;-2.95;76.00
71996;BME280;59862;47.732;7.346;2023-03-01T02:06:19;98604.88;;;-2.97;76.01
71996;BME280;59862;47.732;7.346;2023-03-01T02:08:48;98603.73;;;-3.00;76.02
71996;BME280;59862;47.732;7.346;2023-03-01T02:11:17;98596.77;;;-3.01;76.08
71996;BME280;59862;47.732;7.346;2023-03-01T02:13:47;98592.77;;;-2.99;76.08
71996;BME280;59862;47.732;7.346;2023-03-01T02:16:16;98593.34;;;-2.94;76.19
71996;BME280;59862;47.732;7.346;2023-03-01T02:18:45;98597.17;;;-3.00;76.20
71996;BME280;59862;47.732;7.346;2023-03-01T02:23:56;98581.21;;;-3.04;76.44
71996;BME280;59862;47.732;7.346;2023-03-01T02:29:10;98585.70;;;-3.06;76.67
71996;BME280;59862;47.732;7.346;2023-03-01T02:31:38;98590.70;;;-3.01;76.54
71996;BME280;59862;47.732;7.346;2023-03-01T02:34:13;98585.70;;;-3.06;76.67
71996;BME280;59862;47.732;7.346;2023-03-01T02:37:05;98585.95;;;-3.11;76.73
71996;BME280;59862;47.732;7.346;2023-03-01T02:39:15;98577.98;;;-3.09;76.79
71996;BME280;59862;47.732;7.346;2023-03-01T02:41:48;98581.07;;;-3.10;76.87
71996;BME280;59862;47.732;7.346;2023-03-01T02:44:16;98588.32;;;-3.22;76.94
71996;BME280;59862;47.732;7.346;2023-03-01T02:46:47;98601.19;;;-3.17;77.14
71996;BME280;59862;47.732;7.346;2023-03-01T02:49:26;98598.36;;;-3.21;77.22
71996;BME280;59862;47.732;7.346;2023-03-01T02:54:36;98590.73;;;-3.26;77.34
71996;BME280;59862;47.732;7.346;2023-03-01T02:56:58;98585.85;;;-3.25;77.50
71996;BME280;59862;47.732;7.346;2023-03-01T02:59:29;98571.91;;;-3.25;77.59
71996;BME280;59862;47.732;7.346;2023-03-01T03:01:56;98579.33;;;-3.33;77.66
71996;BME280;59862;47.732;7.346;2023-03-01T03:04:24;98573.42;;;-3.37;77.67
71996;BME280;59862;47.732;7.346;2023-03-01T03:06:51;98570.03;;;-3.39;77.76
71996;BME280;59862;47.732;7.346;2023-03-01T03:09:19;98570.68;;;-3.42;77.90
71996;BME280;59862;47.732;7.346;2023-03-01T03:11:46;98569.83;;;-3.43;77.90
71996;BME280;59862;47.732;7.346;2023-03-01T03:14:16;98570.95;;;-3.40;77.68
71996;BME280;59862;47.732;7.346;2023-03-01T03:16:46;98571.59;;;-3.43;77.81
71996;BME280;59862;47.732;7.346;2023-03-01T03:19:17;98568.87;;;-3.42;77.80
71996;BME280;59862;47.732;7.346;2023-03-01T03:21:44;98568.57;;;-3.44;77.72
71996;BME280;59862;47.732;7.346;2023-03-01T03:24:12;98565.95;;;-3.44;77.80
71996;BME280;59862;47.732;7.346;2023-03-01T03:26:39;98564.64;;;-3.44;77.87
71996;BME280;59862;47.732;7.346;2023-03-01T03:29:06;98564.95;;;-3.42;77.71
71996;BME280;59862;47.732;7.346;2023-03-01T03:31:34;98554.75;;;-3.39;77.67
71996;BME280;59862;47.732;7.346;2023-03-01T03:34:01;98561.01;;;-3.42;77.64
71996;BME280;59862;47.732;7.346;2023-03-01T03:36:29;98557.72;;;-3.45;77.73
71996;BME280;59862;47.732;7.346;2023-03-01T03:38:56;98565.34;;;-3.41;77.70
71996;BME280;59862;47.732;7.346;2023-03-01T03:41:24;98563.82;;;-3.45;77.71
71996;BME280;59862;47.732;7.346;2023-03-01T03:43:51;98560.64;;;-3.43;77.69
71996;BME280;59862;47.732;7.346;2023-03-01T03:46:18;98561.10;;;-3.43;77.68
71996;BME280;59862;47.732;7.346;2023-03-01T03:48:46;98559.27;;;-3.50;77.72
71996;BME280;59862;47.732;7.346;2023-03-01T03:51:15;98564.83;;;-3.47;77.97
71996;BME280;59862;47.732;7.346;2023-03-01T03:53:44;98566.29;;;-3.50;77.98
71996;BME280;59862;47.732;7.346;2023-03-01T03:56:13;98563.76;;;-3.52;77.96
71996;BME280;59862;47.732;7.346;2023-03-01T03:58:41;98559.83;;;-3.52;78.07
71996;BME280;59862;47.732;7.346;2023-03-01T04:01:08;98563.76;;;-3.52;78.03
71996;BME280;59862;47.732;7.346;2023-03-01T04:03:35;98566.14;;;-3.47;78.10
71996;BME280;59862;47.732;7.346;2023-03-01T04:06:03;98557.11;;;-3.50;78.06
71996;BME280;59862;47.732;7.346;2023-03-01T04:08:32;98561.50;;;-3.51;78.04
71996;BME280;59862;47.732;7.346;2023-03-01T04:11:01;98550.98;;;-3.58;78.07
71996;BME280;59862;47.732;7.346;2023-03-01T04:13:47;98554.92;;;-3.58;78.27
71996;BME280;59862;47.732;7.346;2023-03-01T04:16:15;98542.05;;;-3.62;78.29
71996;BME280;59862;47.732;7.346;2023-03-01T04:18:43;98539.52;;;-3.64;78.36
71996;BME280;59862;47.732;7.346;2023-03-01T04:21:10;98538.37;;;-3.67;78.48
71996;BME280;59862;47.732;7.346;2023-03-01T04:23:39;98541.75;;;-3.65;78.47
71996;BME280;59862;47.732;7.346;2023-03-01T04:26:07;98538.27;;;-3.65;78.53
71996;BME280;59862;47.732;7.346;2023-03-01T04:28:38;98536.50;;;-3.65;78.58
71996;BME280;59862;47.732;7.346;2023-03-01T04:31:25;98538.91;;;-3.69;78.59
71996;BME280;59862;47.732;7.346;2023-03-01T04:33:55;98546.23;;;-3.67;78.63
71996;BME280;59862;47.732;7.346;2023-03-01T04:36:25;98542.64;;;-3.73;78.63
71996;BME280;59862;47.732;7.346;2023-03-01T04:38:53;98543.00;;;-3.72;78.71
71996;BME280;59862;47.732;7.346;2023-03-01T04:41:23;98537.61;;;-3.69;78.78
71996;BME280;59862;47.732;7.346;2023-03-01T04:43:51;98534.98;;;-3.69;78.76
71996;BME280;59862;47.732;7.346;2023-03-01T04:46:20;98531.30;;;-3.73;78.79
71996;BME280;59862;47.732;7.346;2023-03-01T04:48:48;98531.39;;;-3.75;78.80
71996;BME280;59862;47.732;7.346;2023-03-01T04:51:16;98534.38;;;-3.74;79.00
71996;BME280;59862;47.732;7.346;2023-03-01T04:53:45;98530.44;;;-3.74;79.00
71996;BME280;59862;47.732;7.346;2023-03-01T04:56:13;98527.45;;;-3.75;79.03
71996;BME280;59862;47.732;7.346;2023-03-01T04:58:42;98534.16;;;-3.78;79.20
71996;BME280;59862;47.732;7.346;2023-03-01T05:01:15;98531.69;;;-3.81;79.21
71996;BME280;59862;47.732;7.346;2023-03-01T05:03:46;98526.08;;;-3.82;79.32
71996;BME280;59862;47.732;7.346;2023-03-01T05:06:15;98529.34;;;-3.86;79.43
71996;BME280;59862;47.732;7.346;2023-03-01T05:08:43;98527.23;;;-3.88;79.64
71996;BME280;59862;47.732;7.346;2023-03-01T05:11:12;98527.76;;;-3.81;79.60
71996;BME280;59862;47.732;7.346;2023-03-01T05:13:40;98525.47;;;-3.87;79.55
71996;BME280;59862;47.732;7.346;2023-03-01T05:16:08;98526.08;;;-3.82;79.69
71996;BME280;59862;47.732;7.346;2023-03-01T05:18:39;98524.10;;;-3.86;79.59
71996;BME280;59862;47.732;7.346;2023-03-01T05:21:10;98522.00;;;-3.88;79.74
71996;BME280;59862;47.732;7.346;2023-03-01T05:23:38;98524.22;;;-3.80;79.74
71996;BME280;59862;47.732;7.346;2023-03-01T05:26:07;98522.36;;;-3.78;79.60
71996;BME280;59862;47.732;7.346;2023-03-01T05:28:35;98517.70;;;-3.89;79.58
71996;BME280;59862;47.732;7.346;2023-03-01T05:31:04;98516.84;;;-3.89;79.76
71996;BME280;59862;47.732;7.346;2023-03-01T05:33:33;98509.38;;;-3.88;79.80
71996;BME280;59862;47.732;7.346;2023-03-01T05:36:01;98510.75;;;-3.90;79.88
71996;BME280;59862;47.732;7.346;2023-03-01T05:38:28;98506.00;;;-3.90;79.82
71996;BME280;59862;47.732;7.346;2023-03-01T05:40:55;98507.45;;;-3.93;79.93
71996;BME280;59862;47.732;7.346;2023-03-01T05:43:23;98503.83;;;-3.91;80.05
71996;BME280;59862;47.732;7.346;2023-03-01T05:45:50;98499.87;;;-3.82;80.06
71996;BME280;59862;47.732;7.346;2023-03-01T05:48:18;98495.23;;;-3.77;79.87
71996;BME280;59862;47.732;7.346;2023-03-01T05:50:46;98490.39;;;-3.85;79.73
71996;BME280;59862;47.732;7.346;2023-03-01T05:53:16;98491.25;;;-3.84;79.82
71996;BME280;59862;47.732;7.346;2023-03-01T05:55:45;98486.16;;;-3.87;79.89
71996;BME280;59862;47.732;7.346;2023-03-01T05:58:20;98486.97;;;-3.78;80.00
71996;BME280;59862;47.732;7.346;2023-03-01T06:00:46;98477.64;;;-3.75;79.82
71996;BME280;59862;47.732;7.346;2023-03-01T06:03:16;98479.78;;;-3.74;79.73
71996;BME280;59862;47.732;7.346;2023-03-01T06:05:44;98473.52;;;-3.72;79.68
71996;BME280;59862;47.732;7.346;2023-03-01T06:08:12;98471.30;;;-3.71;79.55
71996;BME280;59862;47.732;7.346;2023-03-01T06:10:41;98474.63;;;-3.76;79.55
71996;BME280;59862;47.732;7.346;2023-03-01T06:13:08;98478.90;;;-3.82;79.63
71996;BME280;59862;47.732;7.346;2023-03-01T06:15:36;98471.19;;;-3.85;79.75
71996;BME280;59862;47.732;7.346;2023-03-01T06:18:03;98462.32;;;-3.82;79.87
71996;BME280;59862;47.732;7.346;2023-03-01T06:20:31;98465.80;;;-3.82;79.86
71996;BME280;59862;47.732;7.346;2023-03-01T06:22:58;98475.94;;;-3.76;79.83
71996;BME280;59862;47.732;7.346;2023-03-01T06:25:27;98472.65;;;-3.79;79.72
71996;BME280;59862;47.732;7.346;2023-03-01T06:27:55;98471.73;;;-3.87;79.77
71996;BME280;59862;47.732;7.346;2023-03-01T06:30:25;98481.98;;;-3.82;79.89
71996;BME280;59862;47.732;7.346;2023-03-01T06:32:53;98478.99;;;-3.83;79.94
71996;BME280;59862;47.732;7.346;2023-03-01T06:35:22;98488.72;;;-3.86;80.01
71996;BME280;59862;47.732;7.346;2023-03-01T06:37:49;98483.84;;;-3.85;80.05
71996;BME280;59862;47.732;7.346;2023-03-01T06:40:17;98487.31;;;-3.84;80.02
71996;BME280;59862;47.732;7.346;2023-03-01T06:42:49;98493.87;;;-3.84;80.16
71996;BME280;59862;47.732;7.346;2023-03-01T06:45:19;98492.00;;;-3.82;80.17
71996;BME280;59862;47.732;7.346;2023-03-01T06:47:48;98492.06;;;-3.75;80.02
71996;BME280;59862;47.732;7.346;2023-03-01T06:50:16;98483.05;;;-3.78;80.06
71996;BME280;59862;47.732;7.346;2023-03-01T06:52:44;98491.00;;;-3.79;80.11
71996;BME280;59862;47.732;7.346;2023-03-01T06:55:12;98489.80;;;-3.74;80.14
71996;BME280;59862;47.732;7.346;2023-03-01T06:57:40;98481.74;;;-3.62;80.05
71996;BME280;59862;47.732;7.346;2023-03-01T07:00:08;98483.17;;;-3.57;79.79
71996;BME280;59862;47.732;7.346;2023-03-01T07:02:36;98482.20;;;-3.47;79.58
71996;BME280;59862;47.732;7.346;2023-03-01T07:05:04;98478.27;;;-3.32;79.53
71996;BME280;59862;47.732;7.346;2023-03-01T07:07:31;98484.57;;;-3.27;79.14
71996;BME280;59862;47.732;7.346;2023-03-01T07:09:59;98479.53;;;-3.23;78.90
71996;BME280;59862;47.732;7.346;2023-03-01T07:12:26;98470.25;;;-3.22;78.86
71996;BME280;59862;47.732;7.346;2023-03-01T07:14:54;98475.83;;;-3.12;78.78
71996;BME280;59862;47.732;7.346;2023-03-01T07:17:21;98476.88;;;-3.00;78.57
71996;BME280;59862;47.732;7.346;2023-03-01T07:19:49;98474.69;;;-2.92;78.18
71996;BME280;59862;47.732;7.346;2023-03-01T07:22:16;98476.87;;;-2.78;78.04
71996;BME280;59862;47.732;7.346;2023-03-01T07:24:43;98474.95;;;-2.60;77.70
71996;BME280;59862;47.732;7.346;2023-03-01T07:27:11;98470.06;;;-2.59;77.28
71996;BME280;59862;47.732;7.346;2023-03-01T07:29:39;98476.11;;;-2.43;77.03
71996;BME280;59862;47.732;7.346;2023-03-01T07:32:07;98471.89;;;-2.24;76.67
71996;BME280;59862;47.732;7.346;2023-03-01T07:34:34;98469.27;;;-2.39;76.37
71996;BME280;59862;47.732;7.346;2023-03-01T07:37:02;98471.52;;;-2.33;76.51
71996;BME280;59862;47.732;7.346;2023-03-01T07:39:29;98467.66;;;-2.41;76.38
71996;BME280;59862;47.732;7.346;2023-03-01T07:41:57;98459.10;;;-2.45;76.67
71996;BME280;59862;47.732;7.346;2023-03-01T07:44:24;98458.66;;;-2.37;76.93
71996;BME280;59862;47.732;7.346;2023-03-01T07:46:51;98460.45;;;-2.23;76.75
71996;BME280;59862;47.732;7.346;2023-03-01T07:49:21;98459.98;;;-2.09;76.54
71996;BME280;59862;47.732;7.346;2023-03-01T07:51:48;98464.12;;;-1.91;76.03
71996;BME280;59862;47.732;7.346;2023-03-01T07:54:15;98456.77;;;-1.72;75.53
71996;BME280;59862;47.732;7.346;2023-03-01T07:56:44;98451.11;;;-1.66;74.81
71996;BME280;59862;47.732;7.346;2023-03-01T07:59:12;98459.56;;;-1.61;74.41
71996;BME280;59862;47.732;7.346;2023-03-01T08:01:40;98456.36;;;-1.59;74.32
71996;BME280;59862;47.732;7.346;2023-03-01T08:04:08;98463.11;;;-1.47;74.22
71996;BME280;59862;47.732;7.346;2023-03-01T08:06:36;98458.88;;;-1.50;74.44
71996;BME280;59862;47.732;7.346;2023-03-01T08:09:04;98451.78;;;-1.35;74.42
71996;BME280;59862;47.732;7.346;2023-03-01T08:11:31;98459.70;;;-1.16;73.49
71996;BME280;59862;47.732;7.346;2023-03-01T08:13:59;98459.39;;;-1.04;73.23
71996;BME280;59862;47.732;7.346;2023-03-01T08:16:26;98455.23;;;-1.08;72.64
71996;BME280;59862;47.732;7.346;2023-03-01T08:18:54;98455.45;;;-1.11;72.69
71996;BME280;59862;47.732;7.346;2023-03-01T08:21:23;98457.12;;;-1.10;72.74
71996;BME280;59862;47.732;7.346;2023-03-01T08:23:50;98448.66;;;-1.08;72.99
71996;BME280;59862;47.732;7.346;2023-03-01T08:26:19;98444.98;;;-0.86;72.88
71996;BME280;59862;47.732;7.346;2023-03-01T08:28:49;98446.66;;;-0.78;72.56
71996;BME280;59862;47.732;7.346;2023-03-01T08:31:19;98443.19;;;-0.66;72.11
71996;BME280;59862;47.732;7.346;2023-03-01T08:33:49;98442.03;;;-0.49;71.75
71996;BME280;59862;47.732;7.346;2023-03-01T08:36:23;98445.56;;;-0.43;71.46
71996;BME280;59862;47.732;7.346;2023-03-01T08:38:51;98444.05;;;-0.28;71.39
71996;BME280;59862;47.732;7.346;2023-03-01T08:41:19;98442.72;;;-0.15;70.68
71996;BME280;59862;47.732;7.346;2023-03-01T08:43:47;98435.71;;;-0.22;70.83
71996;BME280;59862;47.732;7.346;2023-03-01T08:46:15;98438.00;;;-0.23;70.96
71996;BME280;59862;47.732;7.346;2023-03-01T08:48:43;98433.63;;;-0.42;71.43
71996;BME280;59862;47.732;7.346;2023-03-01T08:51:13;98436.30;;;-0.36;71.50
71996;BME280;59862;47.732;7.346;2023-03-01T08:53:41;98437.95;;;-0.28;71.13
71996;BME280;59862;47.732;7.346;2023-03-01T08:56:10;98440.73;;;-0.12;70.70
71996;BME280;59862;47.732;7.346;2023-03-01T08:58:38;98429.81;;;0.00;70.54
71996;BME280;59862;47.732;7.346;2023-03-01T09:01:14;98431.61;;;0.18;69.95
71996;BME280;59862;47.732;7.346;2023-03-01T09:03:43;98429.81;;;0.00;69.76
71996;BME280;59862;47.732;7.346;2023-03-01T09:06:12;98427.94;;;0.08;70.13
71996;BME280;59862;47.732;7.346;2023-03-01T09:08:42;98429.06;;;0.11;69.61
71996;BME280;59862;47.732;7.346;2023-03-01T09:11:13;98427.01;;;0.09;69.60
71996;BME280;59862;47.732;7.346;2023-03-01T09:13:42;98417.19;;;0.11;69.60
71996;BME280;59862;47.732;7.346;2023-03-01T09:16:12;98425.55;;;0.41;69.50
71996;BME280;59862;47.732;7.346;2023-03-01T09:18:40;98420.48;;;0.38;68.52
71996;BME280;59862;47.732;7.346;2023-03-01T09:21:11;98420.28;;;0.41;68.40
71996;BME280;59862;47.732;7.346;2023-03-01T09:23:41;98419.22;;;0.43;68.48
71996;BME280;59862;47.732;7.346;2023-03-01T09:26:11;98415.07;;;0.52;68.29
71996;BME280;59862;47.732;7.346;2023-03-01T09:28:39;98414.50;;;0.41;68.38
71996;BME280;59862;47.732;7.346;2023-03-01T09:31:14;98402.81;;;0.51;68.35
71996;BME280;59862;47.732;7.346;2023-03-01T09:33:44;98403.41;;;0.72;68.31
71996;BME280;59862;47.732;7.346;2023-03-01T09:36:14;98411.38;;;0.84;67.71
71996;BME280;59862;47.732;7.346;2023-03-01T09:38:42;98405.12;;;0.55;67.36
71996;BME280;59862;47.732;7.346;2023-03-01T09:41:36;98402.50;;;0.61;67.72
71996;BME280;59862;47.732;7.346;2023-03-01T09:47:09;98407.55;;;0.82;67.69
71996;BME280;59862;47.732;7.346;2023-03-01T09:49:36;98400.41;;;0.95;67.24
71996;BME280;59862;47.732;7.346;2023-03-01T09:52:13;98407.99;;;1.05;66.74
71996;BME280;59862;47.732;7.346;2023-03-01T09:54:41;98406.16;;;0.95;66.73
71996;BME280;59862;47.732;7.346;2023-03-01T10:02:52;98400.55;;;1.50;64.99
71996;BME280;59862;47.732;7.346;2023-03-01T10:10:42;98394.39;;;1.39;66.21
71996;BME280;59862;47.732;7.346;2023-03-01T10:13:17;98390.94;;;1.61;65.64
71996;BME280;59862;47.732;7.346;2023-03-01T10:15:51;98387.23;;;1.74;65.04
71996;BME280;59862;47.732;7.346;2023-03-01T10:18:23;98385.30;;;1.93;64.37
71996;BME280;59862;47.732;7.346;2023-03-01T10:20:59;98387.23;;;1.91;64.24
71996;BME280;59862;47.732;7.346;2023-03-01T10:23:30;98385.41;;;1.47;65.40
71996;BME280;59862;47.732;7.346;2023-03-01T10:31:18;98381.23;;;1.94;64.34
71996;BME280;59862;47.732;7.346;2023-03-01T10:33:41;98372.55;;;2.14;63.78
71996;BME280;59862;47.732;7.346;2023-03-01T10:36:09;98373.23;;;2.39;63.29
71996;BME280;59862;47.732;7.346;2023-03-01T10:38:57;98371.14;;;2.59;62.78
71996;BME280;59862;47.732;7.346;2023-03-01T10:41:26;98375.56;;;2.69;62.11
71996;BME280;59862;47.732;7.346;2023-03-01T10:43:57;98381.44;;;2.78;61.81
71996;BME280;59862;47.732;7.346;2023-03-01T10:46:34;98373.36;;;2.80;62.05
71996;BME280;59862;47.732;7.346;2023-03-01T10:51:43;98367.78;;;2.88;61.46
71996;BME280;59862;47.732;7.346;2023-03-01T10:54:20;98363.48;;;3.08;61.43
71996;BME280;59862;47.732;7.346;2023-03-01T10:56:54;98362.13;;;3.40;60.56
71996;BME280;59862;47.732;7.346;2023-03-01T10:59:30;98352.78;;;3.66;60.07
71996;BME280;59862;47.732;7.346;2023-03-01T11:04:38;98349.04;;;3.48;60.23
71996;BME280;59862;47.732;7.346;2023-03-01T11:07:05;98352.81;;;3.25;59.80
71996;BME280;59862;47.732;7.346;2023-03-01T11:09:34;98340.92;;;3.70;60.01
71996;BME280;59862;47.732;7.346;2023-03-01T11:12:05;98342.50;;;3.67;58.03
71996;BME280;59862;47.732;7.346;2023-03-01T11:14:37;98342.11;;;3.87;59.03
71996;BME280;59862;47.732;7.346;2023-03-01T11:17:18;98341.27;;;3.86;58.27
71996;BME280;59862;47.732;7.346;2023-03-01T11:22:35;98333.45;;;4.24;57.38
71996;BME280;59862;47.732;7.346;2023-03-01T11:25:04;98332.20;;;4.38;56.72
71996;BME280;59862;47.732;7.346;2023-03-01T11:27:32;98328.03;;;4.45;56.37
71996;BME280;59862;47.732;7.346;2023-03-01T11:30:20;98324.84;;;4.02;57.68
71996;BME280;59862;47.732;7.346;2023-03-01T11:33:03;98323.68;;;4.34;57.78
71996;BME280;59862;47.732;7.346;2023-03-01T11:35:30;98315.16;;;4.40;56.67
71996;BME280;59862;47.732;7.346;2023-03-01T11:41:01;98308.97;;;4.84;55.72
71996;BME280;59862;47.732;7.346;2023-03-01T11:43:52;98305.47;;;4.93;55.33
71996;BME280;59862;47.732;7.346;2023-03-01T11:52:10;98307.59;;;5.22;53.61
71996;BME280;59862;47.732;7.346;2023-03-01T11:54:47;98303.21;;;5.17;54.68
71996;BME280;59862;47.732;7.346;2023-03-01T12:00:18;98292.18;;;5.02;55.58
71996;BME280;59862;47.732;7.346;2023-03-01T12:08:42;98285.73;;;4.86;54.94
71996;BME280;59862;47.732;7.346;2023-03-01T12:11:36;98287.63;;;4.70;55.62
71996;BME280;59862;47.732;7.346;2023-03-01T12:14:48;98276.71;;;5.02;54.80
71996;BME280;59862;47.732;7.346;2023-03-01T12:16:40;98278.41;;;4.93;54.91
71996;BME280;59862;47.732;7.346;2023-03-01T12:22:34;98269.17;;;4.69;54.55
71996;BME280;59862;47.732;7.346;2023-03-01T12:25:04;98275.74;;;4.45;56.05
71996;BME280;59862;47.732;7.346;2023-03-01T12:30:47;98265.73;;;4.24;56.72
71996;BME280;59862;47.732;7.346;2023-03-01T12:41:25;98252.08;;;4.23;56.20
71996;BME280;59862;47.732;7.346;2023-03-01T12:47:05;98244.30;;;4.16;56.85
71996;BME280;59862;47.732;7.346;2023-03-01T12:49:33;98246.78;;;3.89;56.85
71996;BME280;59862;47.732;7.346;2023-03-01T12:52:06;98238.66;;;3.81;57.62
71996;BME280;59862;47.732;7.346;2023-03-01T12:54:33;98236.01;;;3.81;57.49
71996;BME280;59862;47.732;7.346;2023-03-01T13:05:23;98228.86;;;4.06;57.47
71996;BME280;59862;47.732;7.346;2023-03-01T13:07:53;98224.99;;;3.95;57.85
71996;BME280;59862;47.732;7.346;2023-03-01T13:13:20;98222.73;;;4.15;57.18
71996;BME280;59862;47.732;7.346;2023-03-01T13:15:48;98214.64;;;4.26;57.50
71996;BME280;59862;47.732;7.346;2023-03-01T13:20:51;98217.28;;;4.65;56.71
71996;BME280;59862;47.732;7.346;2023-03-01T13:33:52;98205.34;;;4.88;55.32
71996;BME280;59862;47.732;7.346;2023-03-01T13:39:04;98193.88;;;4.54;56.16
71996;BME280;59862;47.732;7.346;2023-03-01T13:41:50;98191.34;;;4.63;56.14
71996;BME280;59862;47.732;7.346;2023-03-01T13:47:28;98185.19;;;4.95;55.82
71996;BME280;59862;47.732;7.346;2023-03-01T13:49:43;98192.83;;;5.17;54.90
71996;BME280;59862;47.732;7.346;2023-03-01T13:52:02;98186.84;;;5.05;54.88
71996;BME280;59862;47.732;7.346;2023-03-01T13:54:32;98181.45;;;5.24;54.82
71996;BME280;59862;47.732;7.346;2023-03-01T13:57:01;98188.78;;;5.13;54.64
71996;BME280;59862;47.732;7.346;2023-03-01T13:59:29;98188.65;;;5.05;54.87
71996;BME280;59862;47.732;7.346;2023-03-01T14:01:59;98181.45;;;5.11;55.64
71996;BME280;59862;47.732;7.346;2023-03-01T14:04:32;98187.58;;;4.98;55.59
71996;BME280;59862;47.732;7.346;2023-03-01T14:07:21;98182.02;;;5.28;55.25
71996;BME280;59862;47.732;7.346;2023-03-01T14:09:54;98179.63;;;5.25;54.97
71996;BME280;59862;47.732;7.346;2023-03-01T14:15:19;98179.05;;;5.17;54.33
71996;BME280;59862;47.732;7.346;2023-03-01T14:20:27;98176.30;;;5.50;54.46
71996;BME280;59862;47.732;7.346;2023-03-01T14:23:07;98174.89;;;5.69;54.34
71996;BME280;59862;47.732;7.346;2023-03-01T14:25:36;98169.96;;;5.88;54.01
71996;BME280;59862;47.732;7.346;2023-03-01T14:30:57;98183.60;;;5.75;52.58
71996;BME280;59862;47.732;7.346;2023-03-01T14:33:30;98181.33;;;5.26;54.85
71996;BME280;59862;47.732;7.346;2023-03-01T14:36:10;98178.53;;;4.72;56.22
71996;BME280;59862;47.732;7.346;2023-03-01T14:38:46;98171.37;;;4.72;56.94
71996;BME280;59862;47.732;7.346;2023-03-01T14:41:21;98172.17;;;4.92;57.22
71996;BME280;59862;47.732;7.346;2023-03-01T14:44:07;98169.08;;;4.63;56.88
71996;BME280;59862;47.732;7.346;2023-03-01T14:46:38;98175.81;;;4.68;57.49
71996;BME280;59862;47.732;7.346;2023-03-01T14:49:20;98174.13;;;4.67;57.60
71996;BME280;59862;47.732;7.346;2023-03-01T14:51:54;98172.10;;;4.65;57.61
71996;BME280;59862;47.732;7.346;2023-03-01T14:54:35;98170.71;;;4.51;57.85
71996;BME280;59862;47.732;7.346;2023-03-01T14:57:00;98175.42;;;4.43;58.34
71996;BME280;59862;47.732;7.346;2023-03-01T14:59:28;98176.00;;;3.84;59.83
71996;BME280;59862;47.732;7.346;2023-03-01T15:01:57;98185.14;;;3.76;60.28
71996;BME280;59862;47.732;7.346;2023-03-01T15:04:28;98179.40;;;3.71;60.56
71996;BME280;59862;47.732;7.346;2023-03-01T15:06:57;98180.28;;;3.81;60.60
71996;BME280;59862;47.732;7.346;2023-03-01T15:09:30;98181.57;;;3.71;61.24
71996;BME280;59862;47.732;7.346;2023-03-01T15:11:58;98184.73;;;3.56;61.40